sensor_id;sensor_type;location;lat;lon;timestamp;P1;durP1;ratioP1;P2;durP2;ratioP2
7563;SDS011;3823;53.586;10.040;2023-02-23T00:00:27;25.77;;;12.85;;
7563;SDS011;3823;53.586;10.040;2023-02-23T00:02:56;22.42;;;13.15;;
7563;SDS011;3823;53.586;10.040;2023-02-23T00:05:25;23.23;;;14.13;;
7563;SDS011;3823;53.586;10.040;2023-02-23T00:07:55;25.65;;;13.05;;
7563;SDS011;3823;53.586;10.040;2023-02-23T00:10:21;25.40;;;14.57;;
7563;SDS011;3823;53.586;10.040;2023-02-23T00:12:54;26.63;;;14.07;;
7563;SDS011;3823;53.586;10.040;2023-02-23T00:15:24;28.88;;;14.38;;
7563;SDS011;3823;53.586;10.040;2023-02-23T00:17:51;32.95;;;16.08;;
7563;SDS011;3823;53.586;10.040;2023-02-23T00:20:21;28.67;;;14.15;;
7563;SDS011;3823;53.586;10.040;2023-02-23T00:22:54;28.80;;;15.73;;
7563;SDS011;3823;53.586;10.040;2023-02-23T00:25:21;28.35;;;14.88;;
7563;SDS011;3823;53.586;10.040;2023-02-23T00:27:48;30.88;;;14.68;;
7563;SDS011;3823;53.586;10.040;2023-02-23T00:30:16;25.65;;;14.25;;
7563;SDS011;3823;53.586;10.040;2023-02-23T00:32:42;27.70;;;15.18;;
7563;SDS011;3823;53.586;10.040;2023-02-23T00:35:08;31.20;;;15.57;;
7563;SDS011;3823;53.586;10.040;2023-02-23T00:37:40;27.90;;;15.70;;
7563;SDS011;3823;53.586;10.040;2023-02-23T00:40:10;28.42;;;15.35;;
7563;SDS011;3823;53.586;10.040;2023-02-23T00:42:37;22.30;;;13.10;;
7563;SDS011;3823;53.586;10.040;2023-02-23T00:45:04;39.45;;;14.63;;
7563;SDS011;3823;53.586;10.040;2023-02-23T00:47:34;27.08;;;14.27;;
7563;SDS011;3823;53.586;10.040;2023-02-23T00:50:00;31.13;;;15.40;;
7563;SDS011;3823;53.586;10.040;2023-02-23T00:52:27;28.92;;;14.13;;
7563;SDS011;3823;53.586;10.040;2023-02-23T00:54:53;25.70;;;13.23;;
7563;SDS011;3823;53.586;10.040;2023-02-23T00:57:20;30.70;;;13.98;;
7563;SDS011;3823;53.586;10.040;2023-02-23T00:59:46;22.58;;;14.55;;
7563;SDS011;3823;53.586;10.040;2023-02-23T01:02:12;25.05;;;14.07;;
7563;SDS011;3823;53.586;10.040;2023-02-23T01:04:37;30.08;;;15.20;;
7563;SDS011;3823;53.586;10.040;2023-02-23T01:07:03;30.63;;;15.77;;
7563;SDS011;3823;53.586;10.040;2023-02-23T01:09:30;22.63;;;14.57;;
7563;SDS011;3823;53.586;10.040;2023-02-23T01:11:56;28.15;;;14.32;;
7563;SDS011;3823;53.586;10.040;2023-02-23T01:14:25;29.10;;;15.85;;
7563;SDS011;3823;53.586;10.040;2023-02-23T01:16:52;25.35;;;15.27;;
7563;SDS011;3823;53.586;10.040;2023-02-23T01:19:18;25.17;;;14.23;;
7563;SDS011;3823;53.586;10.040;2023-02-23T01:21:44;34.03;;;15.98;;
7563;SDS011;3823;53.586;10.040;2023-02-23T01:24:10;27.27;;;15.75;;
7563;SDS011;3823;53.586;10.040;2023-02-23T01:26:38;33.70;;;15.07;;
7563;SDS011;3823;53.586;10.040;2023-02-23T01:29:11;28.25;;;14.80;;
7563;SDS011;3823;53.586;10.040;2023-02-23T01:31:39;27.55;;;15.70;;
7563;SDS011;3823;53.586;10.040;2023-02-23T01:34:08;26.45;;;14.07;;
7563;SDS011;3823;53.586;10.040;2023-02-23T01:36:36;27.85;;;15.05;;
7563;SDS011;3823;53.586;10.040;2023-02-23T01:39:03;34.88;;;14.93;;
7563;SDS011;3823;53.586;10.040;2023-02-23T01:41:32;27.80;;;15.43;;
7563;SDS011;3823;53.586;10.040;2023-02-23T01:46:33;26.58;;;15.18;;
7563;SDS011;3823;53.586;10.040;2023-02-23T01:49:01;29.48;;;15.48;;
7563;SDS011;3823;53.586;10.040;2023-02-23T01:51:29;30.45;;;15.43;;
7563;SDS011;3823;53.586;10.040;2023-02-23T01:54:06;27.13;;;16.00;;
7563;SDS011;3823;53.586;10.040;2023-02-23T01:56:40;31.45;;;16.42;;
7563;SDS011;3823;53.586;10.040;2023-02-23T01:59:11;32.13;;;15.63;;
7563;SDS011;3823;53.586;10.040;2023-02-23T02:01:39;30.02;;;15.77;;
7563;SDS011;3823;53.586;10.040;2023-02-23T02:04:06;30.88;;;15.82;;
7563;SDS011;3823;53.586;10.040;2023-02-23T02:06:35;34.95;;;15.68;;
7563;SDS011;3823;53.586;10.040;2023-02-23T02:09:13;29.70;;;15.25;;
7563;SDS011;3823;53.586;10.040;2023-02-23T02:11:41;26.77;;;15.23;;
7563;SDS011;3823;53.586;10.040;2023-02-23T02:17:05;27.40;;;15.27;;
7563;SDS011;3823;53.586;10.040;2023-02-23T02:19:59;32.65;;;17.27;;
7563;SDS011;3823;53.586;10.040;2023-02-23T02:22:41;31.13;;;15.50;;
7563;SDS011;3823;53.586;10.040;2023-02-23T02:28:28;32.53;;;17.27;;
7563;SDS011;3823;53.586;10.040;2023-02-23T02:44:54;29.02;;;16.10;;
7563;SDS011;3823;53.586;10.040;2023-02-23T02:47:32;30.85;;;15.95;;
7563;SDS011;3823;53.586;10.040;2023-02-23T02:50:10;32.97;;;15.77;;
7563;SDS011;3823;53.586;10.040;2023-02-23T02:52:52;32.47;;;16.83;;
7563;SDS011;3823;53.586;10.040;2023-02-23T02:55:25;31.05;;;16.27;;
7563;SDS011;3823;53.586;10.040;2023-02-23T02:57:58;30.05;;;15.55;;
7563;SDS011;3823;53.586;10.040;2023-02-23T03:00:40;28.08;;;16.15;;
7563;SDS011;3823;53.586;10.040;2023-02-23T03:06:45;36.60;;;16.10;;
7563;SDS011;3823;53.586;10.040;2023-02-23T03:09:37;24.50;;;14.63;;
7563;SDS011;3823;53.586;10.040;2023-02-23T03:12:44;30.98;;;15.82;;
7563;SDS011;3823;53.586;10.040;2023-02-23T03:15:44;27.63;;;15.15;;
7563;SDS011;3823;53.586;10.040;2023-02-23T03:24:41;33.20;;;15.68;;
7563;SDS011;3823;53.586;10.040;2023-02-23T03:33:45;28.92;;;16.33;;
7563;SDS011;3823;53.586;10.040;2023-02-23T03:36:35;26.20;;;15.23;;
7563;SDS011;3823;53.586;10.040;2023-02-23T03:39:31;23.95;;;15.75;;
7563;SDS011;3823;53.586;10.040;2023-02-23T03:42:20;28.48;;;16.23;;
7563;SDS011;3823;53.586;10.040;2023-02-23T03:45:10;28.95;;;16.10;;
7563;SDS011;3823;53.586;10.040;2023-02-23T03:47:58;31.20;;;16.75;;
7563;SDS011;3823;53.586;10.040;2023-02-23T03:50:54;30.52;;;16.70;;
7563;SDS011;3823;53.586;10.040;2023-02-23T03:53:46;28.85;;;13.93;;
7563;SDS011;3823;53.586;10.040;2023-02-23T03:56:52;33.20;;;16.55;;
7563;SDS011;3823;53.586;10.040;2023-02-23T03:59:49;36.20;;;16.73;;
7563;SDS011;3823;53.586;10.040;2023-02-23T04:02:44;29.42;;;16.52;;
7563;SDS011;3823;53.586;10.040;2023-02-23T04:05:32;30.25;;;15.15;;
7563;SDS011;3823;53.586;10.040;2023-02-23T04:08:20;29.00;;;15.95;;
7563;SDS011;3823;53.586;10.040;2023-02-23T04:14:15;28.67;;;15.32;;
7563;SDS011;3823;53.586;10.040;2023-02-23T04:16:44;27.00;;;15.20;;
7563;SDS011;3823;53.586;10.040;2023-02-23T04:19:11;28.73;;;16.52;;
7563;SDS011;3823;53.586;10.040;2023-02-23T04:21:36;30.63;;;16.48;;
7563;SDS011;3823;53.586;10.040;2023-02-23T04:24:02;29.65;;;15.15;;
7563;SDS011;3823;53.586;10.040;2023-02-23T04:26:28;31.85;;;15.57;;
7563;SDS011;3823;53.586;10.040;2023-02-23T04:28:53;30.15;;;16.00;;
7563;SDS011;3823;53.586;10.040;2023-02-23T04:31:19;29.13;;;15.95;;
7563;SDS011;3823;53.586;10.040;2023-02-23T04:33:47;32.15;;;17.27;;
7563;SDS011;3823;53.586;10.040;2023-02-23T04:36:12;28.23;;;15.40;;
7563;SDS011;3823;53.586;10.040;2023-02-23T04:38:38;26.02;;;14.75;;
7563;SDS011;3823;53.586;10.040;2023-02-23T04:41:03;34.20;;;16.63;;
7563;SDS011;3823;53.586;10.040;2023-02-23T04:43:29;36.33;;;17.20;;
7563;SDS011;3823;53.586;10.040;2023-02-23T04:45:55;32.10;;;16.98;;
7563;SDS011;3823;53.586;10.040;2023-02-23T04:48:20;31.33;;;16.45;;
7563;SDS011;3823;53.586;10.040;2023-02-23T04:50:50;36.08;;;16.67;;
7563;SDS011;3823;53.586;10.040;2023-02-23T04:53:16;28.30;;;15.90;;
7563;SDS011;3823;53.586;10.040;2023-02-23T04:55:42;36.03;;;18.88;;
7563;SDS011;3823;53.586;10.040;2023-02-23T04:58:08;40.40;;;17.33;;
7563;SDS011;3823;53.586;10.040;2023-02-23T05:00:37;39.25;;;17.60;;
7563;SDS011;3823;53.586;10.040;2023-02-23T05:03:03;39.17;;;18.27;;
7563;SDS011;3823;53.586;10.040;2023-02-23T05:05:29;35.58;;;19.63;;
7563;SDS011;3823;53.586;10.040;2023-02-23T05:07:55;39.65;;;19.45;;
7563;SDS011;3823;53.586;10.040;2023-02-23T05:10:21;37.88;;;20.33;;
7563;SDS011;3823;53.586;10.040;2023-02-23T05:12:46;39.20;;;18.40;;
7563;SDS011;3823;53.586;10.040;2023-02-23T05:15:12;37.72;;;18.73;;
7563;SDS011;3823;53.586;10.040;2023-02-23T05:17:38;38.90;;;17.70;;
7563;SDS011;3823;53.586;10.040;2023-02-23T05:20:08;38.03;;;19.27;;
7563;SDS011;3823;53.586;10.040;2023-02-23T05:22:35;31.77;;;17.80;;
7563;SDS011;3823;53.586;10.040;2023-02-23T05:25:01;32.03;;;18.00;;
7563;SDS011;3823;53.586;10.040;2023-02-23T05:27:28;39.83;;;18.80;;
7563;SDS011;3823;53.586;10.040;2023-02-23T05:29:54;40.58;;;20.85;;
7563;SDS011;3823;53.586;10.040;2023-02-23T05:32:19;35.15;;;20.27;;
7563;SDS011;3823;53.586;10.040;2023-02-23T05:34:45;41.72;;;19.60;;
7563;SDS011;3823;53.586;10.040;2023-02-23T05:37:11;35.53;;;17.88;;
7563;SDS011;3823;53.586;10.040;2023-02-23T05:39:36;42.10;;;19.40;;
7563;SDS011;3823;53.586;10.040;2023-02-23T05:42:02;32.17;;;18.02;;
7563;SDS011;3823;53.586;10.040;2023-02-23T05:44:28;34.70;;;18.20;;
7563;SDS011;3823;53.586;10.040;2023-02-23T05:46:53;34.40;;;20.25;;
7563;SDS011;3823;53.586;10.040;2023-02-23T05:49:19;35.42;;;18.45;;
7563;SDS011;3823;53.586;10.040;2023-02-23T05:51:44;35.00;;;19.88;;
7563;SDS011;3823;53.586;10.040;2023-02-23T05:54:10;46.38;;;21.10;;
7563;SDS011;3823;53.586;10.040;2023-02-23T05:56:37;37.20;;;19.42;;
7563;SDS011;3823;53.586;10.040;2023-02-23T05:59:02;39.53;;;19.42;;
7563;SDS011;3823;53.586;10.040;2023-02-23T06:01:28;35.20;;;19.52;;
7563;SDS011;3823;53.586;10.040;2023-02-23T06:03:54;38.92;;;21.50;;
7563;SDS011;3823;53.586;10.040;2023-02-23T06:06:20;36.95;;;19.05;;
7563;SDS011;3823;53.586;10.040;2023-02-23T06:08:47;42.78;;;21.98;;
7563;SDS011;3823;53.586;10.040;2023-02-23T06:11:13;55.33;;;22.83;;
7563;SDS011;3823;53.586;10.040;2023-02-23T06:13:39;42.80;;;23.25;;
7563;SDS011;3823;53.586;10.040;2023-02-23T06:16:05;45.65;;;23.45;;
7563;SDS011;3823;53.586;10.040;2023-02-23T06:18:32;45.50;;;23.52;;
7563;SDS011;3823;53.586;10.040;2023-02-23T06:20:58;42.78;;;22.70;;
7563;SDS011;3823;53.586;10.040;2023-02-23T06:23:25;48.05;;;24.35;;
7563;SDS011;3823;53.586;10.040;2023-02-23T06:25:54;54.95;;;26.50;;
7563;SDS011;3823;53.586;10.040;2023-02-23T06:28:20;54.50;;;27.15;;
7563;SDS011;3823;53.586;10.040;2023-02-23T06:30:45;50.17;;;24.25;;
7563;SDS011;3823;53.586;10.040;2023-02-23T06:33:12;49.28;;;23.88;;
7563;SDS011;3823;53.586;10.040;2023-02-23T06:35:38;54.35;;;26.27;;
7563;SDS011;3823;53.586;10.040;2023-02-23T06:38:05;51.05;;;25.00;;
7563;SDS011;3823;53.586;10.040;2023-02-23T06:40:31;54.10;;;26.92;;
7563;SDS011;3823;53.586;10.040;2023-02-23T06:42:57;57.30;;;27.25;;
7563;SDS011;3823;53.586;10.040;2023-02-23T06:45:23;51.90;;;24.70;;
7563;SDS011;3823;53.586;10.040;2023-02-23T06:47:49;50.03;;;24.45;;
7563;SDS011;3823;53.586;10.040;2023-02-23T06:50:14;53.55;;;25.33;;
7563;SDS011;3823;53.586;10.040;2023-02-23T06:52:40;58.17;;;26.40;;
7563;SDS011;3823;53.586;10.040;2023-02-23T06:55:06;51.15;;;24.55;;
7563;SDS011;3823;53.586;10.040;2023-02-23T06:57:32;55.05;;;26.90;;
7563;SDS011;3823;53.586;10.040;2023-02-23T06:59:58;54.95;;;23.98;;
7563;SDS011;3823;53.586;10.040;2023-02-23T07:02:25;56.42;;;26.80;;
7563;SDS011;3823;53.586;10.040;2023-02-23T07:04:51;53.63;;;24.98;;
7563;SDS011;3823;53.586;10.040;2023-02-23T07:07:16;68.95;;;29.33;;
7563;SDS011;3823;53.586;10.040;2023-02-23T07:09:42;62.60;;;28.00;;
7563;SDS011;3823;53.586;10.040;2023-02-23T07:12:08;58.55;;;28.67;;
7563;SDS011;3823;53.586;10.040;2023-02-23T07:14:34;66.20;;;29.77;;
7563;SDS011;3823;53.586;10.040;2023-02-23T07:17:01;79.70;;;30.90;;
7563;SDS011;3823;53.586;10.040;2023-02-23T07:19:28;66.97;;;27.80;;
7563;SDS011;3823;53.586;10.040;2023-02-23T07:21:54;66.20;;;27.83;;
7563;SDS011;3823;53.586;10.040;2023-02-23T07:24:20;61.53;;;27.27;;
7563;SDS011;3823;53.586;10.040;2023-02-23T07:26:46;70.30;;;28.10;;
7563;SDS011;3823;53.586;10.040;2023-02-23T07:29:13;69.35;;;31.83;;
7563;SDS011;3823;53.586;10.040;2023-02-23T07:31:39;81.65;;;29.58;;
7563;SDS011;3823;53.586;10.040;2023-02-23T07:34:06;70.88;;;25.98;;
7563;SDS011;3823;53.586;10.040;2023-02-23T07:36:32;77.47;;;29.85;;
7563;SDS011;3823;53.586;10.040;2023-02-23T07:38:57;70.63;;;28.13;;
7563;SDS011;3823;53.586;10.040;2023-02-23T07:41:23;81.38;;;29.80;;
7563;SDS011;3823;53.586;10.040;2023-02-23T07:43:49;76.25;;;31.83;;
7563;SDS011;3823;53.586;10.040;2023-02-23T07:46:14;72.45;;;28.30;;
7563;SDS011;3823;53.586;10.040;2023-02-23T07:48:40;65.20;;;27.58;;
7563;SDS011;3823;53.586;10.040;2023-02-23T07:51:10;66.45;;;28.85;;
7563;SDS011;3823;53.586;10.040;2023-02-23T07:53:38;68.38;;;28.90;;
7563;SDS011;3823;53.586;10.040;2023-02-23T07:56:04;78.03;;;30.92;;
7563;SDS011;3823;53.586;10.040;2023-02-23T07:58:30;62.70;;;24.85;;
7563;SDS011;3823;53.586;10.040;2023-02-23T08:00:56;55.65;;;24.85;;
7563;SDS011;3823;53.586;10.040;2023-02-23T08:03:21;66.75;;;27.27;;
7563;SDS011;3823;53.586;10.040;2023-02-23T08:05:47;61.80;;;26.02;;
7563;SDS011;3823;53.586;10.040;2023-02-23T08:08:13;63.13;;;26.20;;
7563;SDS011;3823;53.586;10.040;2023-02-23T08:10:38;55.85;;;25.15;;
7563;SDS011;3823;53.586;10.040;2023-02-23T08:13:04;54.78;;;24.67;;
7563;SDS011;3823;53.586;10.040;2023-02-23T08:15:30;61.08;;;26.88;;
7563;SDS011;3823;53.586;10.040;2023-02-23T08:17:56;53.58;;;22.23;;
7563;SDS011;3823;53.586;10.040;2023-02-23T08:20:22;52.35;;;24.30;;
7563;SDS011;3823;53.586;10.040;2023-02-23T08:22:51;54.15;;;23.02;;
7563;SDS011;3823;53.586;10.040;2023-02-23T08:25:17;49.90;;;23.63;;
7563;SDS011;3823;53.586;10.040;2023-02-23T08:27:43;51.38;;;21.23;;
7563;SDS011;3823;53.586;10.040;2023-02-23T08:30:09;55.17;;;22.80;;
7563;SDS011;3823;53.586;10.040;2023-02-23T08:32:35;57.13;;;23.48;;
7563;SDS011;3823;53.586;10.040;2023-02-23T08:35:01;59.70;;;23.35;;
7563;SDS011;3823;53.586;10.040;2023-02-23T08:37:27;49.30;;;23.67;;
7563;SDS011;3823;53.586;10.040;2023-02-23T08:39:53;59.45;;;24.40;;
7563;SDS011;3823;53.586;10.040;2023-02-23T08:42:19;47.40;;;22.52;;
7563;SDS011;3823;53.586;10.040;2023-02-23T08:44:45;48.22;;;21.30;;
7563;SDS011;3823;53.586;10.040;2023-02-23T08:47:11;51.20;;;24.55;;
7563;SDS011;3823;53.586;10.040;2023-02-23T08:49:36;49.90;;;23.60;;
7563;SDS011;3823;53.586;10.040;2023-02-23T08:52:02;56.58;;;24.80;;
7563;SDS011;3823;53.586;10.040;2023-02-23T08:54:27;45.83;;;20.95;;
7563;SDS011;3823;53.586;10.040;2023-02-23T08:56:56;50.83;;;23.92;;
7563;SDS011;3823;53.586;10.040;2023-02-23T08:59:22;42.55;;;24.67;;
7563;SDS011;3823;53.586;10.040;2023-02-23T09:01:48;48.05;;;22.63;;
7563;SDS011;3823;53.586;10.040;2023-02-23T09:04:14;55.30;;;24.83;;
7563;SDS011;3823;53.586;10.040;2023-02-23T09:06:39;52.10;;;23.35;;
7563;SDS011;3823;53.586;10.040;2023-02-23T09:09:05;46.58;;;23.42;;
7563;SDS011;3823;53.586;10.040;2023-02-23T09:11:31;46.30;;;22.13;;
7563;SDS011;3823;53.586;10.040;2023-02-23T09:13:56;40.35;;;21.25;;
7563;SDS011;3823;53.586;10.040;2023-02-23T09:16:22;46.75;;;21.88;;
7563;SDS011;3823;53.586;10.040;2023-02-23T09:18:48;40.67;;;21.38;;
7563;SDS011;3823;53.586;10.040;2023-02-23T09:21:15;49.35;;;23.30;;
7563;SDS011;3823;53.586;10.040;2023-02-23T09:23:51;45.38;;;25.00;;
7563;SDS011;3823;53.586;10.040;2023-02-23T09:26:20;47.08;;;22.65;;
7563;SDS011;3823;53.586;10.040;2023-02-23T09:28:47;49.95;;;23.77;;
7563;SDS011;3823;53.586;10.040;2023-02-23T09:31:14;55.47;;;26.58;;
7563;SDS011;3823;53.586;10.040;2023-02-23T09:33:41;55.42;;;24.33;;
7563;SDS011;3823;53.586;10.040;2023-02-23T09:36:11;56.92;;;27.00;;
7563;SDS011;3823;53.586;10.040;2023-02-23T09:38:40;50.38;;;24.13;;
7563;SDS011;3823;53.586;10.040;2023-02-23T09:41:54;56.28;;;29.27;;
7563;SDS011;3823;53.586;10.040;2023-02-23T09:46:49;72.50;;;32.03;;
7563;SDS011;3823;53.586;10.040;2023-02-23T09:49:16;69.90;;;31.70;;
7563;SDS011;3823;53.586;10.040;2023-02-23T09:51:45;77.47;;;32.28;;
7563;SDS011;3823;53.586;10.040;2023-02-23T09:54:17;65.18;;;30.80;;
7563;SDS011;3823;53.586;10.040;2023-02-23T09:56:46;77.97;;;32.22;;
7563;SDS011;3823;53.586;10.040;2023-02-23T09:59:14;76.38;;;33.50;;
7563;SDS011;3823;53.586;10.040;2023-02-23T10:01:47;80.10;;;33.97;;
7563;SDS011;3823;53.586;10.040;2023-02-23T10:07:05;105.43;;;39.38;;
7563;SDS011;3823;53.586;10.040;2023-02-23T10:12:38;99.43;;;36.97;;
7563;SDS011;3823;53.586;10.040;2023-02-23T10:15:14;112.43;;;38.78;;
7563;SDS011;3823;53.586;10.040;2023-02-23T10:24:00;103.80;;;33.75;;
7563;SDS011;3823;53.586;10.040;2023-02-23T10:26:33;98.18;;;39.60;;
7563;SDS011;3823;53.586;10.040;2023-02-23T10:29:33;85.32;;;33.25;;
7563;SDS011;3823;53.586;10.040;2023-02-23T10:32:04;108.70;;;36.63;;
7563;SDS011;3823;53.586;10.040;2023-02-23T10:34:38;101.60;;;35.05;;
7563;SDS011;3823;53.586;10.040;2023-02-23T10:37:05;99.32;;;35.00;;
7563;SDS011;3823;53.586;10.040;2023-02-23T10:39:35;109.18;;;36.85;;
7563;SDS011;3823;53.586;10.040;2023-02-23T10:42:02;120.53;;;35.72;;
7563;SDS011;3823;53.586;10.040;2023-02-23T10:44:30;88.80;;;32.05;;
7563;SDS011;3823;53.586;10.040;2023-02-23T10:47:00;92.43;;;34.70;;
7563;SDS011;3823;53.586;10.040;2023-02-23T10:49:47;94.35;;;36.33;;
7563;SDS011;3823;53.586;10.040;2023-02-23T10:53:03;86.78;;;32.67;;
7563;SDS011;3823;53.586;10.040;2023-02-23T10:55:05;102.13;;;32.60;;
7563;SDS011;3823;53.586;10.040;2023-02-23T10:57:33;110.80;;;36.03;;
7563;SDS011;3823;53.586;10.040;2023-02-23T11:00:05;90.90;;;33.65;;
7563;SDS011;3823;53.586;10.040;2023-02-23T11:02:40;92.22;;;33.63;;
7563;SDS011;3823;53.586;10.040;2023-02-23T11:05:06;95.10;;;33.90;;
7563;SDS011;3823;53.586;10.040;2023-02-23T11:08:07;84.25;;;31.42;;
7563;SDS011;3823;53.586;10.040;2023-02-23T11:13:40;87.28;;;30.55;;
7563;SDS011;3823;53.586;10.040;2023-02-23T11:19:03;87.80;;;30.08;;
7563;SDS011;3823;53.586;10.040;2023-02-23T11:21:36;81.93;;;30.08;;
7563;SDS011;3823;53.586;10.040;2023-02-23T11:26:54;71.93;;;28.30;;
7563;SDS011;3823;53.586;10.040;2023-02-23T11:29:37;70.97;;;27.38;;
7563;SDS011;3823;53.586;10.040;2023-02-23T11:32:07;76.43;;;29.90;;
7563;SDS011;3823;53.586;10.040;2023-02-23T11:37:59;65.47;;;26.15;;
7563;SDS011;3823;53.586;10.040;2023-02-23T11:40:40;76.80;;;26.70;;
7563;SDS011;3823;53.586;10.040;2023-02-23T11:43:07;80.57;;;28.02;;
7563;SDS011;3823;53.586;10.040;2023-02-23T11:45:44;86.18;;;30.38;;
7563;SDS011;3823;53.586;10.040;2023-02-23T11:48:19;70.80;;;27.25;;
7563;SDS011;3823;53.586;10.040;2023-02-23T11:50:46;77.38;;;30.45;;
7563;SDS011;3823;53.586;10.040;2023-02-23T11:53:14;74.05;;;27.67;;
7563;SDS011;3823;53.586;10.040;2023-02-23T11:55:48;72.70;;;29.08;;
7563;SDS011;3823;53.586;10.040;2023-02-23T11:58:24;67.68;;;26.73;;
7563;SDS011;3823;53.586;10.040;2023-02-23T12:00:57;71.82;;;27.27;;
7563;SDS011;3823;53.586;10.040;2023-02-23T12:03:35;66.90;;;26.42;;
7563;SDS011;3823;53.586;10.040;2023-02-23T12:06:00;78.82;;;27.45;;
7563;SDS011;3823;53.586;10.040;2023-02-23T12:11:17;76.45;;;26.27;;
7563;SDS011;3823;53.586;10.040;2023-02-23T12:16:45;73.60;;;27.25;;
7563;SDS011;3823;53.586;10.040;2023-02-23T12:19:26;67.53;;;25.58;;
7563;SDS011;3823;53.586;10.040;2023-02-23T12:24:44;84.85;;;27.80;;
7563;SDS011;3823;53.586;10.040;2023-02-23T12:32:54;70.70;;;25.15;;
7563;SDS011;3823;53.586;10.040;2023-02-23T12:38:30;65.28;;;26.70;;
7563;SDS011;3823;53.586;10.040;2023-02-23T12:41:02;63.67;;;24.67;;
7563;SDS011;3823;53.586;10.040;2023-02-23T12:46:07;65.07;;;26.25;;
7563;SDS011;3823;53.586;10.040;2023-02-23T12:51:27;58.15;;;24.25;;
7563;SDS011;3823;53.586;10.040;2023-02-23T12:53:58;72.90;;;26.80;;
7563;SDS011;3823;53.586;10.040;2023-02-23T12:59:27;82.13;;;25.77;;
7563;SDS011;3823;53.586;10.040;2023-02-23T13:02:13;62.95;;;24.30;;
7563;SDS011;3823;53.586;10.040;2023-02-23T13:16:04;53.90;;;22.55;;
7563;SDS011;3823;53.586;10.040;2023-02-23T13:21:21;58.40;;;23.55;;
7563;SDS011;3823;53.586;10.040;2023-02-23T13:23:56;60.80;;;25.27;;
7563;SDS011;3823;53.586;10.040;2023-02-23T13:26:56;64.57;;;24.83;;
7563;SDS011;3823;53.586;10.040;2023-02-23T13:29:30;58.92;;;22.27;;
7563;SDS011;3823;53.586;10.040;2023-02-23T13:32:00;50.45;;;21.90;;
7563;SDS011;3823;53.586;10.040;2023-02-23T13:34:29;55.85;;;22.45;;
7563;SDS011;3823;53.586;10.040;2023-02-23T13:36:57;63.83;;;22.00;;
7563;SDS011;3823;53.586;10.040;2023-02-23T13:45:25;47.75;;;21.98;;
7563;SDS011;3823;53.586;10.040;2023-02-23T13:53:01;50.53;;;21.50;;
7563;SDS011;3823;53.586;10.040;2023-02-23T13:58:10;65.45;;;22.67;;
7563;SDS011;3823;53.586;10.040;2023-02-23T14:01:02;48.22;;;20.70;;
7563;SDS011;3823;53.586;10.040;2023-02-23T14:03:32;45.70;;;21.38;;
7563;SDS011;3823;53.586;10.040;2023-02-23T14:06:05;46.83;;;20.13;;
7563;SDS011;3823;53.586;10.040;2023-02-23T14:08:33;54.83;;;22.05;;
7563;SDS011;3823;53.586;10.040;2023-02-23T14:11:02;45.25;;;18.55;;
7563;SDS011;3823;53.586;10.040;2023-02-23T14:13:30;43.83;;;18.35;;
7563;SDS011;3823;53.586;10.040;2023-02-23T14:16:14;39.40;;;17.50;;
7563;SDS011;3823;53.586;10.040;2023-02-23T14:18:54;44.03;;;19.25;;
7563;SDS011;3823;53.586;10.040;2023-02-23T14:21:27;54.53;;;18.23;;
7563;SDS011;3823;53.586;10.040;2023-02-23T14:24:21;30.00;;;14.88;;
7563;SDS011;3823;53.586;10.040;2023-02-23T14:32:30;37.13;;;13.20;;
7563;SDS011;3823;53.586;10.040;2023-02-23T14:35:02;32.13;;;13.82;;
7563;SDS011;3823;53.586;10.040;2023-02-23T14:40:04;33.92;;;13.70;;
7563;SDS011;3823;53.586;10.040;2023-02-23T14:42:37;29.60;;;11.77;;
7563;SDS011;3823;53.586;10.040;2023-02-23T14:45:15;32.35;;;11.07;;
7563;SDS011;3823;53.586;10.040;2023-02-23T14:47:43;27.58;;;11.88;;
7563;SDS011;3823;53.586;10.040;2023-02-23T14:50:12;32.45;;;13.20;;
7563;SDS011;3823;53.586;10.040;2023-02-23T14:52:46;20.13;;;10.23;;
7563;SDS011;3823;53.586;10.040;2023-02-23T14:55:21;28.25;;;11.32;;
7563;SDS011;3823;53.586;10.040;2023-02-23T14:57:50;25.90;;;10.88;;
7563;SDS011;3823;53.586;10.040;2023-02-23T15:00:41;27.33;;;10.68;;
7563;SDS011;3823;53.586;10.040;2023-02-23T15:03:07;28.00;;;10.68;;
7563;SDS011;3823;53.586;10.040;2023-02-23T15:05:43;21.45;;;11.40;;
7563;SDS011;3823;53.586;10.040;2023-02-23T15:08:14;26.52;;;10.70;;
7563;SDS011;3823;53.586;10.040;2023-02-23T15:10:43;24.65;;;9.98;;
7563;SDS011;3823;53.586;10.040;2023-02-23T15:16:03;20.27;;;10.10;;
7563;SDS011;3823;53.586;10.040;2023-02-23T15:18:37;28.02;;;11.40;;
7563;SDS011;3823;53.586;10.040;2023-02-23T15:21:10;19.48;;;10.40;;
7563;SDS011;3823;53.586;10.040;2023-02-23T15:23:50;27.20;;;11.40;;
7563;SDS011;3823;53.586;10.040;2023-02-23T15:26:35;29.67;;;12.82;;
7563;SDS011;3823;53.586;10.040;2023-02-23T15:29:21;29.67;;;12.57;;
7563;SDS011;3823;53.586;10.040;2023-02-23T15:31:54;26.85;;;12.10;;
7563;SDS011;3823;53.586;10.040;2023-02-23T15:34:23;30.25;;;13.05;;
7563;SDS011;3823;53.586;10.040;2023-02-23T15:36:55;29.00;;;11.30;;
7563;SDS011;3823;53.586;10.040;2023-02-23T15:39:32;28.35;;;11.48;;
7563;SDS011;3823;53.586;10.040;2023-02-23T15:42:04;32.70;;;14.13;;
7563;SDS011;3823;53.586;10.040;2023-02-23T15:44:31;30.35;;;12.48;;
7563;SDS011;3823;53.586;10.040;2023-02-23T15:46:58;33.38;;;13.65;;
7563;SDS011;3823;53.586;10.040;2023-02-23T15:49:31;36.75;;;12.80;;
7563;SDS011;3823;53.586;10.040;2023-02-23T15:52:02;31.40;;;13.15;;
7563;SDS011;3823;53.586;10.040;2023-02-23T15:54:34;38.20;;;13.73;;
7563;SDS011;3823;53.586;10.040;2023-02-23T15:57:16;36.88;;;13.88;;
7563;SDS011;3823;53.586;10.040;2023-02-23T15:59:50;34.17;;;14.57;;
7563;SDS011;3823;53.586;10.040;2023-02-23T16:02:18;50.53;;;17.63;;
7563;SDS011;3823;53.586;10.040;2023-02-23T16:04:47;42.45;;;18.02;;
7563;SDS011;3823;53.586;10.040;2023-02-23T16:07:15;42.25;;;15.85;;
7563;SDS011;3823;53.586;10.040;2023-02-23T16:09:48;45.63;;;16.42;;
7563;SDS011;3823;53.586;10.040;2023-02-23T16:12:24;37.70;;;15.18;;
7563;SDS011;3823;53.586;10.040;2023-02-23T16:14:58;47.30;;;17.55;;
7563;SDS011;3823;53.586;10.040;2023-02-23T16:17:43;45.92;;;15.43;;
7563;SDS011;3823;53.586;10.040;2023-02-23T16:20:12;32.83;;;13.15;;
7563;SDS011;3823;53.586;10.040;2023-02-23T16:22:49;39.13;;;13.60;;
7563;SDS011;3823;53.586;10.040;2023-02-23T16:25:19;41.33;;;13.45;;
7563;SDS011;3823;53.586;10.040;2023-02-23T16:27:50;30.50;;;12.13;;
7563;SDS011;3823;53.586;10.040;2023-02-23T16:30:20;34.80;;;12.52;;
7563;SDS011;3823;53.586;10.040;2023-02-23T16:32:48;24.00;;;10.13;;
7563;SDS011;3823;53.586;10.040;2023-02-23T16:35:42;27.83;;;10.55;;
7563;SDS011;3823;53.586;10.040;2023-02-23T16:38:23;20.25;;;10.30;;
7563;SDS011;3823;53.586;10.040;2023-02-23T16:40:51;20.98;;;8.75;;
7563;SDS011;3823;53.586;10.040;2023-02-23T16:43:18;26.60;;;10.38;;
7563;SDS011;3823;53.586;10.040;2023-02-23T16:45:43;31.73;;;10.65;;
7563;SDS011;3823;53.586;10.040;2023-02-23T16:48:16;27.10;;;10.45;;
7563;SDS011;3823;53.586;10.040;2023-02-23T16:50:43;26.55;;;10.07;;
7563;SDS011;3823;53.586;10.040;2023-02-23T16:53:12;31.83;;;11.10;;
7563;SDS011;3823;53.586;10.040;2023-02-23T16:55:48;38.05;;;11.70;;
7563;SDS011;3823;53.586;10.040;2023-02-23T16:58:22;33.45;;;11.82;;
7563;SDS011;3823;53.586;10.040;2023-02-23T17:00:49;41.53;;;11.50;;
7563;SDS011;3823;53.586;10.040;2023-02-23T17:03:23;30.98;;;11.40;;
7563;SDS011;3823;53.586;10.040;2023-02-23T17:05:50;34.97;;;9.00;;
7563;SDS011;3823;53.586;10.040;2023-02-23T17:08:16;31.75;;;8.60;;